createdAt,value
2022-11-22T00:00:19.062Z,95852.53
2022-11-22T00:02:47.690Z,95851.09
2022-11-22T00:05:15.059Z,95853.78
2022-11-22T00:07:42.326Z,95849.97
2022-11-22T00:10:11.824Z,95844.09
2022-11-22T00:12:39.923Z,95848.88
2022-11-22T00:15:08.354Z,95842.50
2022-11-22T00:17:35.897Z,95843.16
2022-11-22T00:20:06.125Z,95845.38
2022-11-22T00:22:33.645Z,95829.50
2022-11-22T00:25:00.781Z,95842.88
2022-11-22T00:27:27.889Z,95840.19
2022-11-22T00:29:55.003Z,95856.28
2022-11-22T00:32:22.177Z,95861.66
2022-11-22T00:34:49.287Z,95872.09
2022-11-22T00:37:17.756Z,95882.19
2022-11-22T00:39:45.046Z,95882.06
2022-11-22T00:42:12.167Z,95865.78
2022-11-22T00:44:39.276Z,95836.84
2022-11-22T00:47:06.415Z,95824.19
2022-11-22T00:49:33.525Z,95843.50
2022-11-22T00:52:00.635Z,95849.66
2022-11-22T00:54:29.148Z,95850.75
2022-11-22T00:56:56.241Z,95839.22
2022-11-22T00:59:23.364Z,95832.09
2022-11-22T01:01:50.521Z,95836.31
2022-11-22T01:04:17.618Z,95831.84
2022-11-22T01:06:44.755Z,95833.63
2022-11-22T01:09:18.074Z,95837.28
2022-11-22T01:11:46.884Z,95837.28
2022-11-22T01:14:14.466Z,95838.56
2022-11-22T01:16:42.107Z,95846.31
2022-11-22T01:19:09.418Z,95854.84
2022-11-22T01:21:36.793Z,95848.69
2022-11-22T01:24:04.064Z,95864.63
2022-11-22T01:26:31.169Z,95868.59
2022-11-22T01:28:59.808Z,95863.03
2022-11-22T01:31:27.036Z,95851.75
2022-11-22T01:33:54.150Z,95864.94
2022-11-22T01:36:21.322Z,95870.56
2022-11-22T01:38:48.542Z,95860.63
2022-11-22T01:41:15.634Z,95856.50
2022-11-22T01:43:42.745Z,95855.72
2022-11-22T01:46:21.512Z,95862.97
2022-11-22T01:48:52.619Z,95860.00
2022-11-22T01:51:26.072Z,95861.06
2022-11-22T01:53:56.769Z,95846.50
2022-11-22T01:56:25.311Z,95854.25
2022-11-22T01:58:56.918Z,95859.50
2022-11-22T02:01:26.108Z,95868.94
2022-11-22T02:03:56.403Z,95859.81
2022-11-22T02:06:28.698Z,95856.81
2022-11-22T02:09:02.624Z,95855.25
2022-11-22T02:11:34.052Z,95847.84
2022-11-22T02:14:02.866Z,95848.81
2022-11-22T02:16:31.716Z,95854.47
2022-11-22T02:18:58.830Z,95851.00
2022-11-22T02:24:00.203Z,95832.31
2022-11-22T02:26:30.039Z,95823.00
2022-11-22T02:29:04.259Z,95825.69
2022-11-22T02:31:41.502Z,95827.72
2022-11-22T02:34:08.729Z,95817.94
2022-11-22T02:36:41.384Z,95822.84
2022-11-22T02:39:12.513Z,95824.84
2022-11-22T02:41:41.004Z,95811.41
2022-11-22T02:44:09.729Z,95827.06
2022-11-22T02:46:46.548Z,95831.94
2022-11-22T02:49:16.751Z,95819.09
2022-11-22T02:51:43.891Z,95837.78
2022-11-22T02:54:11.061Z,95835.91
2022-11-22T02:56:38.236Z,95843.53
2022-11-22T02:59:06.714Z,95837.84
2022-11-22T03:01:34.036Z,95830.56
2022-11-22T03:04:01.418Z,95829.63
2022-11-22T03:06:28.526Z,95834.53
2022-11-22T03:08:56.766Z,95817.75
2022-11-22T03:11:24.518Z,95832.31
2022-11-22T03:13:51.793Z,95847.78
2022-11-22T03:16:20.286Z,95845.25
2022-11-22T03:18:47.416Z,95846.97
2022-11-22T03:21:14.539Z,95845.38
2022-11-22T03:23:41.651Z,95847.56
2022-11-22T03:26:09.636Z,95852.44
2022-11-22T03:28:37.067Z,95854.53
2022-11-22T03:31:05.407Z,95858.31
2022-11-22T03:33:34.779Z,95865.28
2022-11-22T03:36:02.023Z,95863.19
2022-11-22T03:38:29.162Z,95854.78
2022-11-22T03:40:56.306Z,95876.91
2022-11-22T03:43:23.555Z,95879.41
2022-11-22T03:45:50.813Z,95883.50
2022-11-22T03:48:18.182Z,95875.94
2022-11-22T03:50:46.664Z,95877.19
2022-11-22T03:53:14.103Z,95878.97
2022-11-22T03:55:41.223Z,95877.28
2022-11-22T03:58:08.399Z,95877.94
2022-11-22T04:00:35.731Z,95881.13
2022-11-22T04:03:02.905Z,95874.34
2022-11-22T04:05:30.052Z,95877.53
2022-11-22T04:07:58.531Z,95875.16
2022-11-22T04:10:26.655Z,95871.38
2022-11-22T04:12:56.935Z,95871.94
2022-11-22T04:15:24.088Z,95861.16
2022-11-22T04:17:51.247Z,95887.25
2022-11-22T04:20:20.632Z,95892.94
2022-11-22T04:22:55.595Z,95894.22
2022-11-22T04:25:24.682Z,95885.53
2022-11-22T04:27:51.778Z,95885.53
2022-11-22T04:30:20.726Z,95890.72
2022-11-22T04:32:48.143Z,95901.19
2022-11-22T04:35:16.265Z,95910.84
2022-11-22T04:37:43.425Z,95900.34
2022-11-22T04:40:11.019Z,95893.53
2022-11-22T04:42:39.540Z,95898.91
2022-11-22T04:45:08.433Z,95889.34
2022-11-22T04:47:35.573Z,95885.72
2022-11-22T04:50:04.508Z,95892.16
2022-11-22T04:52:31.635Z,95892.94
2022-11-22T04:54:58.726Z,95882.72
2022-11-22T04:57:25.826Z,95877.81
2022-11-22T04:59:54.335Z,95886.31
2022-11-22T05:02:21.447Z,95881.09
2022-11-22T05:04:50.779Z,95878.25
2022-11-22T05:07:18.192Z,95878.97
2022-11-22T05:09:45.417Z,95879.97
2022-11-22T05:12:12.530Z,95876.81
2022-11-22T05:14:39.815Z,95888.81
2022-11-22T05:17:11.645Z,95877.72
2022-11-22T05:19:43.592Z,95884.88
2022-11-22T05:22:13.421Z,95882.50
2022-11-22T05:24:40.536Z,95881.84
2022-11-22T05:27:07.654Z,95887.53
2022-11-22T05:29:35.337Z,95880.88
2022-11-22T05:32:02.490Z,95884.00
2022-11-22T05:34:30.977Z,95885.78
2022-11-22T05:36:58.081Z,95888.41
2022-11-22T05:39:25.198Z,95888.28
2022-11-22T05:41:52.323Z,95881.28
2022-11-22T05:44:19.429Z,95871.81
2022-11-22T05:46:46.558Z,95891.94
2022-11-22T05:49:13.675Z,95888.75
2022-11-22T05:51:42.162Z,95885.78
2022-11-22T05:54:09.355Z,95899.22
2022-11-22T05:56:36.504Z,95900.47
2022-11-22T05:59:03.818Z,95906.16
2022-11-22T06:01:31.031Z,95906.47
2022-11-22T06:03:58.144Z,95912.47
2022-11-22T06:06:25.249Z,95915.03
2022-11-22T06:08:53.733Z,95919.75
2022-11-22T06:11:22.502Z,95929.25
2022-11-22T06:13:51.840Z,95929.38
2022-11-22T06:16:19.415Z,95922.28
2022-11-22T06:18:46.886Z,95911.75
2022-11-22T06:21:16.009Z,95932.94
2022-11-22T06:23:43.721Z,95934.72
2022-11-22T06:26:15.294Z,95940.19
2022-11-22T06:28:42.508Z,95925.34
2022-11-22T06:31:11.361Z,95920.31
2022-11-22T06:33:40.716Z,95930.75
2022-11-22T06:36:09.567Z,95931.22
2022-11-22T06:38:37.434Z,95927.56
2022-11-22T06:41:06.204Z,95921.09
2022-11-22T06:43:35.995Z,95927.25
2022-11-22T06:46:04.336Z,95927.56
2022-11-22T06:48:33.071Z,95932.75
2022-11-22T06:51:00.812Z,95934.47
2022-11-22T06:53:46.096Z,95941.00
2022-11-22T06:56:15.843Z,95952.22
2022-11-22T06:58:45.007Z,95948.56
2022-11-22T07:01:13.563Z,95949.25
2022-11-22T07:03:41.767Z,95957.00
2022-11-22T07:06:10.920Z,95962.97
2022-11-22T07:08:38.510Z,95967.56
2022-11-22T07:11:07.360Z,95969.28
2022-11-22T07:13:35.467Z,95965.94
2022-11-22T07:16:05.812Z,95980.03
2022-11-22T07:18:33.846Z,95960.53
2022-11-22T07:21:03.371Z,95978.56
2022-11-22T07:23:32.410Z,95982.53
2022-11-22T07:25:59.653Z,95986.47
2022-11-22T07:28:27.469Z,95986.31
2022-11-22T07:30:59.211Z,95987.72
2022-11-22T07:33:27.719Z,95985.22
2022-11-22T07:35:55.018Z,95994.25
2022-11-22T07:38:22.186Z,95996.03
2022-11-22T07:40:49.313Z,95995.69
2022-11-22T07:43:16.417Z,95986.47
2022-11-22T07:45:43.506Z,95987.97
2022-11-22T07:48:10.634Z,96004.06
2022-11-22T07:50:39.087Z,96001.53
2022-11-22T07:53:06.294Z,96012.63
2022-11-22T07:55:33.674Z,96001.81
2022-11-22T07:58:01.450Z,96020.50
2022-11-22T08:00:28.907Z,96031.66
2022-11-22T08:02:57.278Z,96031.13
2022-11-22T08:05:24.422Z,96032.31
2022-11-22T08:07:53.426Z,96032.50
2022-11-22T08:10:21.692Z,96032.44
2022-11-22T08:12:49.063Z,96038.06
2022-11-22T08:15:16.823Z,96037.00
2022-11-22T08:17:44.204Z,96044.16
2022-11-22T08:20:11.612Z,96037.34
2022-11-22T08:22:39.922Z,96043.69
2022-11-22T08:25:09.471Z,96049.06
2022-11-22T08:27:36.619Z,96050.97
2022-11-22T08:30:04.491Z,96054.28
2022-11-22T08:32:31.618Z,96054.94
2022-11-22T08:34:58.730Z,96063.13
2022-11-22T08:37:25.835Z,96060.56
2022-11-22T08:39:52.963Z,96061.50
2022-11-22T08:42:21.506Z,96064.50
2022-11-22T08:44:48.616Z,96074.28
2022-11-22T08:47:15.822Z,96074.28
2022-11-22T08:49:42.974Z,96078.41
2022-11-22T08:52:10.127Z,96090.50
2022-11-22T08:54:38.192Z,96091.75
2022-11-22T08:57:05.594Z,96095.84
2022-11-22T08:59:34.366Z,96088.38
2022-11-22T09:02:01.918Z,96103.88
2022-11-22T09:04:29.158Z,96091.06
2022-11-22T09:09:45.026Z,96091.66
2022-11-22T09:12:12.516Z,96083.41
2022-11-22T09:14:40.995Z,96093.28
2022-11-22T09:17:08.688Z,96097.69
2022-11-22T09:19:38.037Z,96104.50
2022-11-22T09:22:05.217Z,96109.78
2022-11-22T09:24:32.373Z,96108.59
2022-11-22T09:26:59.483Z,96103.75
2022-11-22T09:29:26.597Z,96109.47
2022-11-22T09:31:55.223Z,96117.53
2022-11-22T09:34:22.350Z,96116.09
2022-11-22T09:36:49.486Z,96116.66
2022-11-22T09:39:16.646Z,96116.94
2022-11-22T09:42:15.779Z,96114.75
2022-11-22T09:44:56.095Z,96116.56
2022-11-22T09:47:36.906Z,96121.06
2022-11-22T09:50:15.923Z,96121.66
2022-11-22T09:52:49.275Z,96119.44
2022-11-22T09:55:24.229Z,96122.97
2022-11-22T09:58:02.250Z,96119.16
2022-11-22T10:00:30.243Z,96123.94
2022-11-22T10:03:05.686Z,96127.28
2022-11-22T10:05:38.842Z,96114.28
2022-11-22T10:08:17.798Z,96131.56
2022-11-22T10:10:45.068Z,96128.25
2022-11-22T10:13:17.177Z,96136.31
2022-11-22T10:15:49.903Z,96133.94
2022-11-22T10:18:26.114Z,96136.94
2022-11-22T10:20:53.606Z,96125.38
2022-11-22T10:23:23.167Z,96138.19
2022-11-22T10:25:57.266Z,96132.97
2022-11-22T10:28:33.262Z,96132.16
2022-11-22T10:31:08.047Z,96126.28
2022-11-22T10:33:44.781Z,96134.00
2022-11-22T10:36:26.699Z,96129.97
2022-11-22T10:39:17.395Z,96144.63
2022-11-22T10:41:59.612Z,96138.69
2022-11-22T10:44:38.228Z,96137.66
2022-11-22T10:47:15.864Z,96142.44
2022-11-22T10:49:55.544Z,96143.50
2022-11-22T10:52:33.000Z,96150.63
2022-11-22T10:55:14.459Z,96141.97
2022-11-22T10:57:51.609Z,96145.09
2022-11-22T11:00:20.762Z,96143.09
2022-11-22T11:03:06.449Z,96150.44
2022-11-22T11:06:15.315Z,96152.78
2022-11-22T11:09:02.594Z,96152.72
2022-11-22T11:11:26.751Z,96150.34
2022-11-22T11:13:58.436Z,96152.06
2022-11-22T11:16:29.947Z,96145.91
2022-11-22T11:19:00.697Z,96152.88
2022-11-22T11:21:29.177Z,96150.81
2022-11-22T11:23:56.265Z,96148.91
2022-11-22T11:26:26.978Z,96149.38
2022-11-22T11:29:27.605Z,96144.78
2022-11-22T11:32:07.089Z,96140.19
2022-11-22T11:34:34.392Z,96129.75
2022-11-22T11:37:04.353Z,96117.03
2022-11-22T11:39:33.177Z,96113.56
2022-11-22T11:42:00.682Z,96110.72
2022-11-22T11:44:29.979Z,96112.94
2022-11-22T11:46:58.289Z,96109.44
2022-11-22T11:49:26.848Z,96118.16
2022-11-22T11:51:56.094Z,96114.19
2022-11-22T11:54:29.887Z,96110.72
2022-11-22T11:56:59.488Z,96111.97
2022-11-22T11:59:41.862Z,96110.53
2022-11-22T12:02:13.449Z,96120.22
2022-11-22T12:04:49.580Z,96116.72
2022-11-22T12:07:19.401Z,96109.41
2022-11-22T12:09:50.343Z,96122.41
2022-11-22T12:12:31.703Z,96111.81
2022-11-22T12:15:13.864Z,96109.91
2022-11-22T12:17:49.250Z,96106.56
2022-11-22T12:20:22.019Z,96112.25
2022-11-22T12:23:02.715Z,96100.06
2022-11-22T12:25:35.988Z,96100.22
2022-11-22T12:28:12.600Z,96103.53
2022-11-22T12:30:42.962Z,96106.41
2022-11-22T12:33:19.106Z,96100.66
2022-11-22T12:35:47.631Z,96098.81
2022-11-22T12:38:18.493Z,96086.72
2022-11-22T12:40:51.026Z,96092.75
2022-11-22T12:43:22.493Z,96099.75
2022-11-22T12:45:53.068Z,96101.63
2022-11-22T12:48:26.742Z,96078.63
2022-11-22T12:50:56.755Z,96093.06
2022-11-22T12:53:29.175Z,96076.28
2022-11-22T12:56:04.979Z,96099.59
2022-11-22T12:58:40.021Z,96107.00
2022-11-22T13:01:15.542Z,96104.41
2022-11-22T13:03:50.510Z,96112.31
2022-11-22T13:06:23.979Z,96108.06
2022-11-22T13:09:03.467Z,96111.41
2022-11-22T13:11:37.654Z,96106.47
2022-11-22T13:14:07.567Z,96100.63
2022-11-22T13:16:34.807Z,96106.00
2022-11-22T13:19:05.118Z,96100.28
2022-11-22T13:21:44.086Z,96101.25
2022-11-22T13:24:28.318Z,96083.66
2022-11-22T13:27:02.684Z,96098.81
2022-11-22T13:29:33.001Z,96092.81
2022-11-22T13:32:02.290Z,96096.13
2022-11-22T13:34:30.203Z,96093.91
2022-11-22T13:37:07.881Z,96092.59
2022-11-22T13:39:41.693Z,96095.13
2022-11-22T13:42:14.822Z,96092.75
2022-11-22T13:45:06.147Z,96066.41
2022-11-22T13:47:41.490Z,96083.44
2022-11-22T13:50:47.963Z,96095.78
2022-11-22T13:53:23.803Z,96097.97
2022-11-22T13:55:51.371Z,96089.25
2022-11-22T13:58:51.798Z,96099.53
2022-11-22T14:01:55.064Z,96094.63
2022-11-22T14:04:43.258Z,96097.97
2022-11-22T14:07:44.051Z,96095.88
2022-11-22T14:10:31.410Z,96101.56
2022-11-22T14:13:19.771Z,96105.31
2022-11-22T14:16:18.930Z,96107.69
2022-11-22T14:18:58.542Z,96112.28
2022-11-22T14:21:51.465Z,96112.91
2022-11-22T14:24:34.125Z,96117.41
2022-11-22T14:27:16.431Z,96120.84
2022-11-22T14:30:03.194Z,96123.91
2022-11-22T14:32:47.448Z,96125.63
2022-11-22T14:35:35.643Z,96114.19
2022-11-22T14:38:37.519Z,96114.94
2022-11-22T14:41:30.486Z,96130.34
2022-11-22T14:44:01.389Z,96133.69
2022-11-22T14:46:52.612Z,96135.59
2022-11-22T14:49:30.560Z,96142.84
2022-11-22T14:51:59.291Z,96138.56
2022-11-22T14:54:29.787Z,96139.66
2022-11-22T14:57:04.097Z,96141.25
2022-11-22T14:59:59.471Z,96140.78
2022-11-22T15:02:46.820Z,96137.72
2022-11-22T15:09:10.826Z,96136.00
2022-11-22T15:09:17.128Z,96128.88
2022-11-22T15:11:35.235Z,96139.31
2022-11-22T15:14:39.388Z,96142.50
2022-11-22T15:57:22.555Z,96196.59
2022-11-22T15:59:53.882Z,96199.28
2022-11-22T16:02:23.923Z,96199.25
2022-11-22T16:06:07.737Z,96206.81
2022-11-22T16:07:43.007Z,96216.41
2022-11-22T16:10:19.779Z,96206.94
2022-11-22T16:12:48.618Z,96217.91
2022-11-22T16:15:26.651Z,96221.09
2022-11-22T16:17:59.619Z,96226.81
2022-11-22T16:20:31.738Z,96219.53
2022-11-22T16:23:13.416Z,96221.66
2022-11-22T16:25:41.982Z,96230.38
2022-11-22T16:28:22.497Z,96218.59
2022-11-22T16:30:50.089Z,96211.34
2022-11-22T16:33:17.230Z,96215.72
2022-11-22T16:35:44.392Z,96220.00
2022-11-22T16:38:11.498Z,96229.00
2022-11-22T16:40:41.712Z,96224.78
2022-11-22T16:43:15.461Z,96220.59
2022-11-22T16:45:44.403Z,96222.88
2022-11-22T16:48:30.755Z,96215.91
2022-11-22T16:51:01.642Z,96217.63
2022-11-22T16:53:38.423Z,96207.47
2022-11-22T16:56:06.381Z,96210.34
2022-11-22T16:58:33.495Z,96215.28
2022-11-22T17:01:02.269Z,96215.09
2022-11-22T17:03:30.192Z,96222.25
2022-11-22T17:05:57.459Z,96222.25
2022-11-22T17:08:24.576Z,96217.44
2022-11-22T17:10:52.573Z,96207.94
2022-11-22T17:13:22.109Z,96214.41
2022-11-22T17:15:49.258Z,96220.59
2022-11-22T17:18:17.930Z,96213.63
2022-11-22T17:20:45.103Z,96220.75
2022-11-22T17:23:18.277Z,96222.84
2022-11-22T17:25:45.381Z,96225.84
2022-11-22T17:28:12.551Z,96230.53
2022-11-22T17:30:39.682Z,96241.91
2022-11-22T17:33:06.797Z,96228.28
2022-11-22T17:35:37.182Z,96236.81
2022-11-22T17:38:04.703Z,96235.72
2022-11-22T17:40:31.913Z,96252.75
2022-11-22T17:42:59.048Z,96250.03
2022-11-22T17:45:26.254Z,96247.25
2022-11-22T17:47:53.374Z,96252.53
2022-11-22T17:50:20.523Z,96256.00
2022-11-22T17:52:49.157Z,96254.91
2022-11-22T17:55:16.293Z,96254.53
2022-11-22T17:57:43.401Z,96257.59
2022-11-22T18:00:11.468Z,96263.19
2022-11-22T18:02:38.658Z,96269.03
2022-11-22T18:05:06.627Z,96269.88
2022-11-22T18:07:34.454Z,96266.06
2022-11-22T18:10:03.271Z,96272.84
2022-11-22T18:12:30.391Z,96270.75
2022-11-22T18:14:57.526Z,96266.78
2022-11-22T18:17:24.702Z,96273.63
2022-11-22T18:19:51.874Z,96276.47
2022-11-22T18:22:19.063Z,96275.25
2022-11-22T18:24:46.159Z,96274.88
2022-11-22T18:27:14.610Z,96274.38
2022-11-22T18:29:53.452Z,96270.47
2022-11-22T18:32:20.669Z,96281.47
2022-11-22T18:34:47.939Z,96287.53
2022-11-22T18:37:15.048Z,96282.59
2022-11-22T18:39:42.172Z,96285.03
2022-11-22T18:42:13.911Z,96288.00
2022-11-22T18:44:42.565Z,96279.00
2022-11-22T18:47:09.707Z,96292.47
2022-11-22T18:49:37.250Z,96291.81
2022-11-22T18:52:05.040Z,96296.53
2022-11-22T18:54:32.514Z,96291.25
2022-11-22T18:57:00.047Z,96297.72
2022-11-22T18:59:27.178Z,96294.13
2022-11-22T19:01:55.698Z,96295.84
2022-11-22T19:04:22.815Z,96299.22
2022-11-22T19:06:49.938Z,96301.34
2022-11-22T19:09:17.263Z,96284.94
2022-11-22T19:11:44.423Z,96288.25
2022-11-22T19:14:11.532Z,96286.84
2022-11-22T19:16:38.711Z,96291.59
2022-11-22T19:19:10.283Z,96292.09
2022-11-22T19:21:37.392Z,96291.00
2022-11-22T19:24:05.491Z,96297.16
2022-11-22T19:26:32.649Z,96299.56
2022-11-22T19:29:00.172Z,96292.41
2022-11-22T19:31:28.451Z,96296.19
2022-11-22T19:33:55.631Z,96300.59
2022-11-22T19:36:32.207Z,96312.94
2022-11-22T19:39:01.408Z,96306.34
2022-11-22T19:41:28.509Z,96304.88
2022-11-22T19:43:56.290Z,96316.06
2022-11-22T19:46:23.832Z,96322.38
2022-11-22T19:48:51.454Z,96315.59
2022-11-22T19:51:18.829Z,96325.56
2022-11-22T19:53:47.744Z,96310.66
2022-11-22T19:56:16.721Z,96324.94
2022-11-22T19:58:49.411Z,96325.41
2022-11-22T20:01:16.818Z,96336.44
2022-11-22T20:03:44.859Z,96336.00
2022-11-22T20:06:13.834Z,96319.25
2022-11-22T20:08:41.332Z,96327.63
2022-11-22T20:11:11.795Z,96325.72
2022-11-22T20:13:40.256Z,96334.16
2022-11-22T20:16:08.401Z,96328.00
2022-11-22T20:18:35.554Z,96329.38
2022-11-22T20:21:03.902Z,96340.78
2022-11-22T20:23:31.593Z,96330.31
2022-11-22T20:26:01.251Z,96338.09
2022-11-22T20:28:29.851Z,96328.41
2022-11-22T20:31:06.995Z,96328.06
2022-11-22T20:33:35.323Z,96330.03
2022-11-22T20:36:03.789Z,96336.38
2022-11-22T20:38:32.758Z,96331.59
2022-11-22T20:41:00.207Z,96327.06
2022-11-22T20:43:30.363Z,96342.63
2022-11-22T20:46:01.074Z,96341.66
2022-11-22T20:48:28.248Z,96340.97
2022-11-22T20:50:55.350Z,96340.22
2022-11-22T20:53:22.476Z,96331.38
2022-11-22T20:55:49.606Z,96339.31
2022-11-22T20:58:16.725Z,96338.22
2022-11-22T21:00:45.269Z,96333.19
2022-11-22T21:03:12.421Z,96333.06
2022-11-22T21:05:39.567Z,96333.88
2022-11-22T21:08:06.939Z,96342.13
2022-11-22T21:10:34.224Z,96344.00
2022-11-22T21:13:01.357Z,96344.75
2022-11-22T21:15:28.474Z,96323.19
2022-11-22T21:18:23.472Z,96338.75
2022-11-22T21:20:44.033Z,96347.25
2022-11-22T21:23:11.126Z,96348.94
2022-11-22T21:25:38.219Z,96349.28
2022-11-22T21:28:06.336Z,96347.44
2022-11-22T21:30:33.460Z,96349.47
2022-11-22T21:33:01.955Z,96341.34
2022-11-22T21:35:29.187Z,96349.41
2022-11-22T21:37:56.294Z,96333.69
2022-11-22T21:40:23.411Z,96350.31
2022-11-22T21:42:50.557Z,96346.09
2022-11-22T21:45:17.679Z,96351.59
2022-11-22T21:47:44.794Z,96361.75
2022-11-22T21:50:13.587Z,96362.66
2022-11-22T21:52:40.708Z,96356.78
2022-11-22T21:55:08.564Z,96363.28
2022-11-22T21:57:35.707Z,96363.88
2022-11-22T22:00:03.470Z,96359.19
2022-11-22T22:02:31.418Z,96356.69
2022-11-22T22:04:58.835Z,96362.66
2022-11-22T22:07:51.349Z,96358.50
2022-11-22T22:10:15.202Z,96357.06
2022-11-22T22:12:42.486Z,96366.25
2022-11-22T22:15:11.341Z,96355.72
2022-11-22T22:17:38.602Z,96364.41
2022-11-22T22:20:06.955Z,96363.69
2022-11-22T22:22:37.017Z,96367.09
2022-11-22T22:25:05.527Z,96370.75
2022-11-22T22:27:33.387Z,96365.59
2022-11-22T22:30:00.678Z,96370.56
2022-11-22T22:32:28.247Z,96372.56
2022-11-22T22:34:55.565Z,96380.53
2022-11-22T22:37:22.715Z,96378.03
2022-11-22T22:39:51.887Z,96386.41
2022-11-22T22:42:19.399Z,96384.41
2022-11-22T22:44:46.524Z,96382.31
2022-11-22T22:47:14.013Z,96386.22
2022-11-22T22:49:41.310Z,96389.50
2022-11-22T22:52:08.735Z,96388.00
2022-11-22T22:54:35.924Z,96392.31
2022-11-22T22:57:04.418Z,96398.75
2022-11-22T22:59:31.611Z,96396.84
2022-11-22T23:01:58.898Z,96409.31
2022-11-22T23:04:26.003Z,96403.94
2022-11-22T23:06:53.119Z,96399.19
2022-11-22T23:09:20.547Z,96408.63
2022-11-22T23:11:47.664Z,96413.00
2022-11-22T23:14:17.842Z,96402.03
2022-11-22T23:16:45.308Z,96413.59
2022-11-22T23:19:12.736Z,96405.25
2022-11-22T23:21:40.243Z,96408.44
2022-11-22T23:24:08.776Z,96410.28
2022-11-22T23:26:36.715Z,96405.25
2022-11-22T23:29:04.306Z,96403.25
2022-11-22T23:31:32.923Z,96411.00
2022-11-22T23:34:00.674Z,96413.00
2022-11-22T23:36:28.146Z,96410.63
2022-11-22T23:38:55.290Z,96410.13
2022-11-22T23:41:23.937Z,96423.66
2022-11-22T23:43:53.008Z,96421.66
2022-11-22T23:46:20.554Z,96414.81
2022-11-22T23:48:53.573Z,96419.69
2022-11-22T23:51:21.362Z,96423.38
2022-11-22T23:53:48.551Z,96425.34
2022-11-22T23:56:21.654Z,96413.91
2022-11-22T23:58:49.698Z,96421.69
